Time;durP1;ratioP1;P1;durP2;ratioP2;P2;SDS_P1;SDS_P2;PMS_P1;PMS_P2;Temp;Humidity;BMP_temperature;BMP_pressure;BME280_temperature;BME280_humidity;BME280_pressure;Samples;Min_cycle;Max_cycle;Signal;HPM_P1;HPM_P2
2021/12/31 00:01:55;;;;;;;;;;;;;;;12.17;100.00;101796.69;5113266;28;19920;-79
2021/12/31 00:04:27;;;;;;;;;;;;;;;12.18;100.00;101790.53;5114486;28;19920;-78
2021/12/31 00:06:52;;;;;;;;;;;;;;;12.15;100.00;101793.97;5115683;28;20007;-79
2021/12/31 00:09:18;;;;;;;;;;;;;;;12.23;100.00;101793.38;5116723;28;20004;-78
2021/12/31 00:11:43;;;;;;;;;;;;;;;12.26;100.00;101798.81;5117092;28;19920;-79
2021/12/31 00:14:09;;;;;;;;;;;;;;;12.25;100.00;101794.38;5117724;28;19920;-78
2021/12/31 00:16:34;;;;;;;;;;;;;;;12.29;100.00;101798.94;5117601;28;19966;-77
2021/12/31 00:19:05;;;;;;;;;;;;;;;12.34;100.00;101794.78;5115053;28;20006;-78
2021/12/31 00:21:33;;;;;;;;;;;;;;;12.34;100.00;101784.22;5116684;28;19920;-77
2021/12/31 00:23:59;;;;;;;;;;;;;;;12.31;100.00;101792.91;5116319;28;20014;-77
2021/12/31 00:26:25;;;;;;;;;;;;;;;12.32;100.00;101788.50;5118213;28;20021;-78
2021/12/31 00:28:52;;;;;;;;;;;;;;;12.31;100.00;101790.25;5115989;28;19924;-78
2021/12/31 00:31:18;;;;;;;;;;;;;;;12.29;100.00;101793.66;5117341;28;19923;-78
2021/12/31 00:33:43;;;;;;;;;;;;;;;12.31;100.00;101781.44;5116646;28;20259;-78
2021/12/31 00:36:09;;;;;;;;;;;;;;;12.35;100.00;101786.94;5099638;28;20004;-77
2021/12/31 00:38:35;;;;;;;;;;;;;;;12.35;100.00;101789.56;5116388;28;19928;-78
2021/12/31 00:41:01;;;;;;;;;;;;;;;12.37;100.00;101789.63;5116760;28;19923;-78
2021/12/31 00:43:26;;;;;;;;;;;;;;;12.33;100.00;101787.69;5116519;28;19963;-79
2021/12/31 00:45:51;;;;;;;;;;;;;;;12.32;100.00;101785.88;5116130;28;19920;-78
2021/12/31 00:48:19;;;;;;;;;;;;;;;12.41;100.00;101782.75;5116233;28;19927;-78
2021/12/31 00:50:46;;;;;;;;;;;;;;;12.37;100.00;101790.53;5116101;28;19951;-78
2021/12/31 00:53:11;;;;;;;;;;;;;;;12.36;100.00;101783.44;5116172;28;19927;-78
2021/12/31 00:55:37;;;;;;;;;;;;;;;12.32;100.00;101778.88;5116249;28;19916;-77
2021/12/31 00:58:04;;;;;;;;;;;;;;;12.41;100.00;101774.81;5116058;28;19920;-78
2021/12/31 01:00:29;;;;;;;;;;;;;;;12.35;100.00;101770.16;5115604;28;19949;-78
2021/12/31 01:02:55;;;;;;;;;;;;;;;12.35;100.00;101767.53;5115795;28;20404;-77
2021/12/31 01:05:20;;;;;;;;;;;;;;;12.34;100.00;101778.94;5115642;28;19958;-76
2021/12/31 01:07:46;;;;;;;;;;;;;;;12.39;100.00;101777.41;5115675;28;19919;-77
2021/12/31 01:10:13;;;;;;;;;;;;;;;12.43;100.00;101778.41;5115592;28;19920;-78
2021/12/31 01:12:39;;;;;;;;;;;;;;;12.44;100.00;101774.94;5115448;28;19919;-78
2021/12/31 01:15:09;;;;;;;;;;;;;;;12.44;100.00;101769.66;5115133;28;20339;-77
2021/12/31 01:20:26;;;;;;;;;;;;;;;12.49;100.00;101773.41;5100057;28;19926;-79
2021/12/31 01:22:52;;;;;;;;;;;;;;;12.51;100.00;101780.56;5115354;28;19920;-78
2021/12/31 01:25:18;;;;;;;;;;;;;;;12.52;100.00;101785.03;5115452;28;19927;-78
2021/12/31 01:27:44;;;;;;;;;;;;;;;12.56;100.00;101775.47;5114891;28;20283;-78
2021/12/31 01:30:13;;;;;;;;;;;;;;;12.56;100.00;101779.00;5115536;28;19920;-78
2021/12/31 01:32:38;;;;;;;;;;;;;;;12.55;100.00;101785.16;5115035;28;19927;-78
2021/12/31 01:35:04;;;;;;;;;;;;;;;12.53;100.00;101786.81;5114423;28;19920;-78
2021/12/31 01:37:31;;;;;;;;;;;;;;;12.55;100.00;101790.44;5115563;28;19926;-78
2021/12/31 01:39:59;;;;;;;;;;;;;;;12.60;100.00;101779.16;5114778;28;20007;-78
2021/12/31 01:42:31;;;;;;;;;;;;;;;12.61;100.00;101784.50;5114921;28;19920;-78
2021/12/31 01:45:01;;;;;;;;;;;;;;;12.57;100.00;101788.75;5114810;28;19974;-78
2021/12/31 01:48:06;;;;;;;;;;;;;;;12.65;100.00;101785.56;5114865;28;19920;-78
2021/12/31 01:50:28;;;;;;;;;;;;;;;12.61;100.00;101778.31;5113290;28;20298;-78
2021/12/31 01:52:54;;;;;;;;;;;;;;;12.60;100.00;101777.44;5114028;28;19926;-78
2021/12/31 01:55:21;;;;;;;;;;;;;;;12.55;100.00;101771.03;5115766;28;19919;-78
2021/12/31 01:57:49;;;;;;;;;;;;;;;12.55;100.00;101777.22;5115043;28;19920;-78
2021/12/31 02:00:15;;;;;;;;;;;;;;;12.54;100.00;101777.16;5114579;28;19924;-78
2021/12/31 02:02:44;;;;;;;;;;;;;;;12.56;100.00;101780.75;5114583;28;19931;-78
2021/12/31 02:05:10;;;;;;;;;;;;;;;12.56;100.00;101776.38;5114414;28;19919;-77
2021/12/31 02:07:37;;;;;;;;;;;;;;;12.53;100.00;101784.16;5114651;28;19924;-77
2021/12/31 02:10:03;;;;;;;;;;;;;;;12.52;100.00;101770.88;5113934;28;20360;-78
2021/12/31 02:12:28;;;;;;;;;;;;;;;12.47;100.00;101762.75;5114668;28;19928;-78
2021/12/31 02:14:53;;;;;;;;;;;;;;;12.43;100.00;101774.06;5113787;28;19924;-78
2021/12/31 02:17:21;;;;;;;;;;;;;;;12.50;100.00;101767.28;5113982;28;20403;-77
2021/12/31 02:19:59;;;;;;;;;;;;;;;12.48;100.00;101761.94;5113827;28;19926;-78
2021/12/31 02:22:27;;;;;;;;;;;;;;;12.52;100.00;101765.59;5114122;28;19928;-77
2021/12/31 02:24:54;;;;;;;;;;;;;;;12.55;100.00;101761.38;5113842;28;19919;-77
2021/12/31 02:27:23;;;;;;;;;;;;;;;12.52;100.00;101762.97;5113083;28;19946;-76
2021/12/31 02:29:48;;;;;;;;;;;;;;;12.47;100.00;101773.34;5113372;28;19959;-77
2021/12/31 02:32:13;;;;;;;;;;;;;;;12.49;100.00;101760.19;5112700;28;20253;-78
2021/12/31 02:34:39;;;;;;;;;;;;;;;12.54;100.00;101780.69;5113442;28;20374;-77
2021/12/31 02:37:04;;;;;;;;;;;;;;;12.51;100.00;101772.63;5113775;28;20268;-77
2021/12/31 02:39:29;;;;;;;;;;;;;;;12.53;100.00;101768.31;5113844;28;20056;-78
2021/12/31 02:41:55;;;;;;;;;;;;;;;12.52;100.00;101773.53;5101160;28;19963;-77
2021/12/31 02:44:20;;;;;;;;;;;;;;;12.51;100.00;101770.00;5093625;28;20348;-77
2021/12/31 02:46:45;;;;;;;;;;;;;;;12.53;100.00;101764.78;5092962;28;19920;-77
2021/12/31 02:49:18;;;;;;;;;;;;;;;12.46;100.00;101771.56;5093455;28;20040;-78
2021/12/31 02:51:44;;;;;;;;;;;;;;;12.48;100.00;101761.94;5092997;28;19920;-76
2021/12/31 02:54:09;;;;;;;;;;;;;;;12.45;100.00;101769.72;5093445;28;20564;-78
2021/12/31 02:56:35;;;;;;;;;;;;;;;12.51;100.00;101770.00;5093270;28;19955;-78
2021/12/31 02:59:03;;;;;;;;;;;;;;;12.46;100.00;101758.34;5093083;28;19920;-77
2021/12/31 03:01:30;;;;;;;;;;;;;;;12.52;100.00;101763.88;5093460;28;20394;-78
2021/12/31 03:03:56;;;;;;;;;;;;;;;12.51;100.00;101767.34;5092816;28;20367;-78
2021/12/31 03:06:22;;;;;;;;;;;;;;;12.53;100.00;101770.06;5092901;28;20256;-78
2021/12/31 03:08:50;;;;;;;;;;;;;;;12.52;100.00;101774.44;5092133;28;19921;-78
2021/12/31 03:11:20;;;;;;;;;;;;;;;12.47;100.00;101768.06;5093024;28;19969;-78
2021/12/31 03:13:52;;;;;;;;;;;;;;;12.53;100.00;101765.66;5092429;28;19931;-77
2021/12/31 03:16:18;;;;;;;;;;;;;;;12.51;100.00;101755.91;5092945;28;19994;-78
2021/12/31 03:18:45;;;;;;;;;;;;;;;12.55;100.00;101753.44;5092887;28;19927;-77
2021/12/31 03:21:20;;;;;;;;;;;;;;;12.52;100.00;101748.03;5092750;28;20344;-77
2021/12/31 03:23:45;;;;;;;;;;;;;;;12.55;100.00;101737.59;5092898;28;20355;-78
2021/12/31 03:26:11;;;;;;;;;;;;;;;12.52;100.00;101741.81;5093136;28;19945;-77
2021/12/31 03:28:38;;;;;;;;;;;;;;;12.58;100.00;101734.16;5076371;28;19957;-78
2021/12/31 03:31:03;;;;;;;;;;;;;;;12.50;100.00;101725.91;5092539;28;19927;-78
2021/12/31 03:33:30;;;;;;;;;;;;;;;12.53;100.00;101746.28;5092727;28;19920;-78
2021/12/31 03:35:55;;;;;;;;;;;;;;;12.53;100.00;101739.25;5092770;28;19924;-78
2021/12/31 03:38:28;;;;;;;;;;;;;;;12.59;100.00;101746.53;5094575;28;19927;-78
2021/12/31 03:40:54;;;;;;;;;;;;;;;12.54;100.00;101738.44;5096692;28;19963;-79
2021/12/31 03:43:19;;;;;;;;;;;;;;;12.51;100.00;101740.03;5097038;28;19943;-78
2021/12/31 03:45:46;;;;;;;;;;;;;;;12.49;100.00;101744.34;5097023;28;20244;-78
2021/12/31 03:48:12;;;;;;;;;;;;;;;12.50;100.00;101735.59;5096585;28;19920;-78
2021/12/31 03:50:40;;;;;;;;;;;;;;;12.54;100.00;101740.19;5097118;28;19927;-78
2021/12/31 03:53:05;;;;;;;;;;;;;;;12.56;100.00;101742.03;5096095;28;19927;-77
2021/12/31 03:55:31;;;;;;;;;;;;;;;12.54;100.00;101741.06;5096306;28;20364;-78
2021/12/31 03:57:57;;;;;;;;;;;;;;;12.52;100.00;101748.03;5096424;28;20310;-79
2021/12/31 04:00:22;;;;;;;;;;;;;;;12.52;100.00;101744.47;5096540;28;19986;-78
2021/12/31 04:02:48;;;;;;;;;;;;;;;12.52;100.00;101752.41;5095982;28;19920;-78
2021/12/31 04:05:13;;;;;;;;;;;;;;;12.47;100.00;101746.91;5096378;28;20270;-78
2021/12/31 04:07:39;;;;;;;;;;;;;;;12.48;100.00;101739.91;5096133;28;19924;-78
2021/12/31 04:10:05;;;;;;;;;;;;;;;12.47;100.00;101743.38;5096099;28;19946;-77
2021/12/31 04:12:30;;;;;;;;;;;;;;;12.47;100.00;101738.09;5096418;28;19920;-77
2021/12/31 04:14:55;;;;;;;;;;;;;;;12.43;100.00;101738.78;5096389;28;19927;-78
2021/12/31 04:17:26;;;;;;;;;;;;;;;12.42;100.00;101743.19;5079301;28;20352;-77
2021/12/31 04:19:55;;;;;;;;;;;;;;;12.43;100.00;101731.78;5096186;28;19956;-78
2021/12/31 04:22:23;;;;;;;;;;;;;;;12.51;100.00;101734.75;5096015;28;19920;-78
2021/12/31 04:27:16;;;;;;;;;;;;;;;12.42;100.00;101732.63;5096864;28;20366;-78
2021/12/31 04:29:47;;;;;;;;;;;;;;;12.45;100.00;101724.81;5095620;28;20042;-78
2021/12/31 04:32:12;;;;;;;;;;;;;;;12.47;100.00;101725.78;5095789;28;19923;-78
2021/12/31 04:34:41;;;;;;;;;;;;;;;12.48;100.00;101724.06;5095031;28;19926;-78
2021/12/31 04:37:07;;;;;;;;;;;;;;;12.47;100.00;101716.97;5094958;28;20018;-78
2021/12/31 04:39:33;;;;;;;;;;;;;;;12.47;100.00;101719.59;5078845;28;19931;-78
2021/12/31 04:41:59;;;;;;;;;;;;;;;12.41;100.00;101714.97;5095749;28;19920;-78
2021/12/31 04:44:25;;;;;;;;;;;;;;;12.36;100.00;101725.31;5095240;28;19923;-77
2021/12/31 04:46:51;;;;;;;;;;;;;;;12.41;100.00;101717.59;5094655;28;20539;-78
2021/12/31 04:49:17;;;;;;;;;;;;;;;12.42;100.00;101710.59;5093308;28;19984;-77
2021/12/31 04:51:42;;;;;;;;;;;;;;;12.36;100.00;101703.31;5094408;28;20418;-80
2021/12/31 04:54:14;;;;;;;;;;;;;;;12.26;100.00;101701.09;5094874;28;19920;-78
2021/12/31 04:56:42;;;;;;;;;;;;;;;12.16;100.00;101687.50;5080009;28;20255;-78
2021/12/31 04:59:09;;;;;;;;;;;;;;;12.14;100.00;101677.72;5095482;28;19920;-77
2021/12/31 05:01:34;;;;;;;;;;;;;;;12.11;100.00;101681.13;5095601;28;19922;-77
2021/12/31 05:03:59;;;;;;;;;;;;;;;12.07;100.00;101680.94;5095316;28;19920;-77
2021/12/31 05:06:25;;;;;;;;;;;;;;;11.99;100.00;101683.25;5078057;28;19967;-77
2021/12/31 05:08:52;;;;;;;;;;;;;;;11.99;100.00;101685.88;5095047;28;19920;-78
2021/12/31 05:11:18;;;;;;;;;;;;;;;11.95;100.00;101683.97;5095359;28;19928;-78
2021/12/31 05:13:46;;;;;;;;;;;;;;;11.98;100.00;101678.81;5094956;28;20013;-78
2021/12/31 05:16:11;;;;;;;;;;;;;;;11.93;100.00;101681.25;5095165;28;19920;-78
2021/12/31 05:18:37;;;;;;;;;;;;;;;11.90;100.00;101675.81;5094628;28;19946;-79
2021/12/31 05:21:02;;;;;;;;;;;;;;;11.90;100.00;101680.16;5094827;28;19924;-79
2021/12/31 05:23:28;;;;;;;;;;;;;;;11.86;100.00;101685.31;5095160;28;19920;-78
2021/12/31 05:25:53;;;;;;;;;;;;;;;11.89;100.00;101688.94;5094934;28;20014;-78
2021/12/31 05:28:25;;;;;;;;;;;;;;;11.81;100.00;101701.78;5095085;28;20329;-78
2021/12/31 05:30:50;;;;;;;;;;;;;;;11.78;100.00;101705.19;5094336;28;20010;-77
2021/12/31 05:33:17;;;;;;;;;;;;;;;11.76;100.00;101698.94;5095037;28;19916;-78
2021/12/31 05:35:42;;;;;;;;;;;;;;;11.78;100.00;101707.81;5094593;28;20335;-78
2021/12/31 05:38:08;;;;;;;;;;;;;;;11.82;100.00;101703.56;5094905;28;19947;-78
2021/12/31 05:40:34;;;;;;;;;;;;;;;11.80;100.00;101706.16;5098392;28;20003;-78
2021/12/31 05:42:59;;;;;;;;;;;;;;;11.81;100.00;101696.53;5115148;28;19962;-77
2021/12/31 05:45:26;;;;;;;;;;;;;;;11.79;100.00;101704.38;5116394;28;19919;-78
2021/12/31 05:47:51;;;;;;;;;;;;;;;11.76;100.00;101698.03;5097757;28;20376;-78
2021/12/31 05:50:27;;;;;;;;;;;;;;;11.69;100.00;101702.13;5115396;28;19955;-77
2021/12/31 05:52:52;;;;;;;;;;;;;;;11.73;100.00;101696.19;5114929;28;19920;-78
2021/12/31 05:55:19;;;;;;;;;;;;;;;11.68;100.00;101692.41;5114817;28;19926;-78
2021/12/31 05:57:44;;;;;;;;;;;;;;;11.64;100.00;101711.59;5114512;28;19946;-78
2021/12/31 06:00:09;;;;;;;;;;;;;;;11.63;100.00;101702.75;5114825;28;20352;-78
2021/12/31 06:02:35;;;;;;;;;;;;;;;11.62;100.00;101710.59;5114465;28;19924;-78
2021/12/31 06:05:00;;;;;;;;;;;;;;;11.61;100.00;101714.97;5114252;28;20271;-79
2021/12/31 06:07:26;;;;;;;;;;;;;;;11.60;100.00;101722.81;5114899;28;19919;-79
2021/12/31 06:09:51;;;;;;;;;;;;;;;11.61;100.00;101727.28;5115157;28;20006;-78
2021/12/31 06:12:17;;;;;;;;;;;;;;;11.61;100.00;101712.34;5115025;28;19953;-78
2021/12/31 06:14:42;;;;;;;;;;;;;;;11.63;100.00;101693.94;5114613;28;19973;-78
2021/12/31 06:17:08;;;;;;;;;;;;;;;11.61;100.00;101692.97;5114642;28;19920;-77
2021/12/31 06:19:34;;;;;;;;;;;;;;;11.57;100.00;101680.47;5097752;28;19923;-78
2021/12/31 06:22:00;;;;;;;;;;;;;;;11.53;100.00;101674.16;5114090;28;19919;-77
2021/12/31 06:24:25;;;;;;;;;;;;;;;11.50;100.00;101684.59;5114031;28;19989;-78
2021/12/31 06:26:51;;;;;;;;;;;;;;;11.47;100.00;101684.44;5114856;28;19926;-77
2021/12/31 06:29:16;;;;;;;;;;;;;;;11.43;100.00;101664.91;5113892;28;20368;-78
2021/12/31 06:31:42;;;;;;;;;;;;;;;11.42;100.00;101665.78;5102373;28;19920;-78
2021/12/31 06:34:07;;;;;;;;;;;;;;;11.38;100.00;101669.09;5077365;28;19920;-78
2021/12/31 06:36:32;;;;;;;;;;;;;;;11.37;100.00;101669.91;5093536;28;20009;-77
2021/12/31 06:39:02;;;;;;;;;;;;;;;11.34;100.00;101659.22;5093824;28;19920;-77
2021/12/31 06:41:27;;;;;;;;;;;;;;;11.31;100.00;101659.06;5094129;28;20002;-77
2021/12/31 06:43:53;;;;;;;;;;;;;;;11.27;100.00;101647.50;5093348;28;19947;-78
2021/12/31 06:46:20;;;;;;;;;;;;;;;11.26;100.00;101655.34;5076215;28;19924;-77
2021/12/31 06:48:46;;;;;;;;;;;;;;;11.25;100.00;101662.34;5093382;28;19928;-76
2021/12/31 06:51:11;;;;;;;;;;;;;;;11.23;100.00;101658.75;5093345;28;19920;-77
2021/12/31 06:53:37;;;;;;;;;;;;;;;11.22;100.00;101656.06;5093575;28;20449;-77
2021/12/31 06:56:02;;;;;;;;;;;;;;;11.24;100.00;101659.66;5093194;28;19920;-78
2021/12/31 06:58:28;;;;;;;;;;;;;;;11.22;100.00;101664.84;5092738;28;20006;-77
2021/12/31 07:00:54;;;;;;;;;;;;;;;11.24;100.00;101667.56;5093754;28;20328;-77
2021/12/31 07:03:19;;;;;;;;;;;;;;;11.20;100.00;101673.50;5092689;28;19920;-77
2021/12/31 07:05:45;;;;;;;;;;;;;;;11.19;100.00;101677.00;5092691;28;20416;-76
2021/12/31 07:08:12;;;;;;;;;;;;;;;11.21;100.00;101675.31;5093050;28;20031;-77
2021/12/31 07:10:38;;;;;;;;;;;;;;;11.22;100.00;101687.69;5093497;28;19923;-78
2021/12/31 07:13:10;;;;;;;;;;;;;;;11.28;100.00;101693.25;5092159;28;19920;-78
2021/12/31 07:15:39;;;;;;;;;;;;;;;11.25;100.00;101696.63;5094653;28;19973;-77
2021/12/31 07:18:04;;;;;;;;;;;;;;;11.28;100.00;101704.69;5092172;28;19924;-77
2021/12/31 07:20:30;;;;;;;;;;;;;;;11.28;100.00;101701.16;5093283;28;20018;-77
2021/12/31 07:22:55;;;;;;;;;;;;;;;11.28;100.00;101703.78;5092401;28;19916;-78
2021/12/31 07:25:20;;;;;;;;;;;;;;;11.32;100.00;101703.09;5100356;28;19927;-78
2021/12/31 07:27:50;;;;;;;;;;;;;;;11.33;100.00;101715.44;5112291;28;19928;-79
2021/12/31 07:30:16;;;;;;;;;;;;;;;11.31;100.00;101712.75;5113309;28;19969;-78
2021/12/31 07:32:41;;;;;;;;;;;;;;;11.32;100.00;101705.72;5111829;28;19927;-78
2021/12/31 07:35:07;;;;;;;;;;;;;;;11.27;100.00;101708.13;5113346;28;19920;-78
2021/12/31 07:37:33;;;;;;;;;;;;;;;11.28;100.00;101698.53;5113110;28;20348;-77
2021/12/31 07:40:03;;;;;;;;;;;;;;;11.29;100.00;101687.13;5112751;28;19920;-77
2021/12/31 07:42:28;;;;;;;;;;;;;;;11.30;100.00;101696.84;5113091;28;19961;-78
2021/12/31 07:44:54;;;;;;;;;;;;;;;11.27;100.00;101692.31;5097067;28;19952;-77
2021/12/31 07:47:20;;;;;;;;;;;;;;;11.35;100.00;101683.88;5092281;28;20016;-78
2021/12/31 07:49:45;;;;;;;;;;;;;;;11.35;100.00;101679.50;5092522;28;20308;-78
2021/12/31 07:52:12;;;;;;;;;;;;;;;11.34;100.00;101687.34;5092150;28;20006;-78
2021/12/31 07:54:37;;;;;;;;;;;;;;;11.28;100.00;101682.69;5092164;28;19923;-78
2021/12/31 07:57:02;;;;;;;;;;;;;;;11.31;100.00;101682.81;5092622;28;19947;-77
2021/12/31 07:59:37;;;;;;;;;;;;;;;11.27;100.00;101691.44;5092381;28;20049;-78
2021/12/31 08:02:03;;;;;;;;;;;;;;;11.25;100.00;101683.44;5091882;28;19920;-77
2021/12/31 08:04:28;;;;;;;;;;;;;;;11.29;100.00;101688.00;5092699;28;19927;-78
2021/12/31 08:06:53;;;;;;;;;;;;;;;11.29;100.00;101693.28;5113398;28;19919;-80
2021/12/31 08:09:20;;;;;;;;;;;;;;;11.31;100.00;101693.34;5115367;28;19926;-78
2021/12/31 08:11:45;;;;;;;;;;;;;;;11.30;100.00;101696.84;5114685;28;20087;-78
2021/12/31 08:14:10;;;;;;;;;;;;;;;11.32;100.00;101701.34;5116440;28;19996;-77
2021/12/31 08:16:36;;;;;;;;;;;;;;;11.37;100.00;101692.75;5115952;28;20366;-79
2021/12/31 08:19:02;;;;;;;;;;;;;;;11.37;100.00;101711.22;5115520;28;19919;-78
2021/12/31 08:21:27;;;;;;;;;;;;;;;11.38;100.00;101708.66;5115412;28;19993;-79
2021/12/31 08:23:54;;;;;;;;;;;;;;;11.38;100.00;101706.00;5098900;27;20348;-79
2021/12/31 08:26:19;;;;;;;;;;;;;;;11.39;100.00;101707.81;5118146;27;19923;-79
2021/12/31 08:28:46;;;;;;;;;;;;;;;11.39;100.00;101697.28;5119157;27;20355;-77
2021/12/31 08:31:11;;;;;;;;;;;;;;;11.38;100.00;101692.81;5119469;27;19927;-78
2021/12/31 08:33:37;;;;;;;;;;;;;;;11.45;100.00;101694.00;5120166;27;19919;-78
2021/12/31 08:36:02;;;;;;;;;;;;;;;11.44;100.00;101693.09;5119021;27;20009;-77
2021/12/31 08:38:29;;;;;;;;;;;;;;;11.42;100.00;101692.16;5119785;27;20313;-77
2021/12/31 08:40:56;;;;;;;;;;;;;;;11.44;100.00;101694.84;5100475;28;19985;-79
2021/12/31 08:43:21;;;;;;;;;;;;;;;11.47;100.00;101698.53;5098965;28;19920;-77
2021/12/31 08:45:46;;;;;;;;;;;;;;;11.47;100.00;101701.16;5112715;27;19919;-78
2021/12/31 08:48:13;;;;;;;;;;;;;;;11.47;100.00;101698.53;5118745;27;20268;-77
2021/12/31 08:50:38;;;;;;;;;;;;;;;11.46;100.00;101704.63;5118436;27;19919;-78
2021/12/31 08:53:04;;;;;;;;;;;;;;;11.50;100.00;101716.22;5118546;27;19920;-79
2021/12/31 08:55:32;;;;;;;;;;;;;;;11.51;100.00;101712.75;5118740;27;19946;-79
2021/12/31 08:57:58;;;;;;;;;;;;;;;11.47;100.00;101695.88;5118118;27;19926;-79
2021/12/31 09:00:23;;;;;;;;;;;;;;;11.42;100.00;101694.78;5118682;27;19951;-79
2021/12/31 09:02:50;;;;;;;;;;;;;;;11.50;100.00;101701.31;5118242;27;19919;-79
2021/12/31 09:05:15;;;;;;;;;;;;;;;11.53;100.00;101713.75;5117901;27;19930;-79
2021/12/31 09:07:41;;;;;;;;;;;;;;;11.52;100.00;101705.75;5101632;27;20275;-79
2021/12/31 09:10:08;;;;;;;;;;;;;;;11.61;100.00;101706.16;5118385;27;19920;-78
2021/12/31 09:12:34;;;;;;;;;;;;;;;11.65;100.00;101701.09;5117896;27;19919;-78
2021/12/31 09:14:59;;;;;;;;;;;;;;;11.68;100.00;101700.31;5113158;27;19919;-78
2021/12/31 09:17:24;;;;;;;;;;;;;;;11.74;100.00;101702.34;5110371;27;20010;-78
2021/12/31 09:19:50;;;;;;;;;;;;;;;11.74;100.00;101716.44;5117286;27;19926;-79
2021/12/31 09:22:15;;;;;;;;;;;;;;;11.72;100.00;101726.03;5118280;27;20374;-76
2021/12/31 09:24:41;;;;;;;;;;;;;;;11.63;100.00;101728.25;5119788;27;20321;-78
2021/12/31 09:27:06;;;;;;;;;;;;;;;11.60;100.00;101723.72;5120293;27;20342;-78
2021/12/31 09:29:32;;;;;;;;;;;;;;;11.63;100.00;101728.25;5126424;27;19920;-78
2021/12/31 09:31:57;;;;;;;;;;;;;;;11.57;100.00;101733.22;5114325;28;19919;-78
2021/12/31 09:34:22;;;;;;;;;;;;;;;11.60;100.00;101729.00;5118339;27;20006;-77
2021/12/31 09:36:48;;;;;;;;;;;;;;;11.56;100.00;101734.06;5115825;27;19926;-80
2021/12/31 09:39:14;;;;;;;;;;;;;;;11.57;100.00;101714.78;5117491;27;20248;-78
2021/12/31 09:41:41;;;;;;;;;;;;;;;11.61;100.00;101724.63;5115003;27;20333;-77
2021/12/31 09:44:07;;;;;;;;;;;;;;;11.63;100.00;101746.72;5099684;28;19966;-78
2021/12/31 09:46:33;;;;;;;;;;;;;;;11.62;100.00;101758.06;5114479;28;19962;-76
2021/12/31 09:48:58;;;;;;;;;;;;;;;11.60;100.00;101743.94;5113788;28;19920;-79
2021/12/31 09:51:24;;;;;;;;;;;;;;;11.61;100.00;101745.75;5116760;27;19943;-79
2021/12/31 09:53:51;;;;;;;;;;;;;;;11.65;100.00;101745.03;5103294;27;20006;-79
2021/12/31 09:56:16;;;;;;;;;;;;;;;11.68;100.00;101750.44;5117541;27;19920;-77
2021/12/31 09:58:42;;;;;;;;;;;;;;;11.74;100.00;101749.84;5116689;27;19927;-79
2021/12/31 10:01:08;;;;;;;;;;;;;;;11.69;100.00;101736.44;5134617;27;20378;-79
2021/12/31 10:03:34;;;;;;;;;;;;;;;11.72;100.00;101746.22;5118246;27;19927;-79
2021/12/31 10:06:01;;;;;;;;;;;;;;;11.72;100.00;101744.50;5108065;27;19920;-79
2021/12/31 10:08:29;;;;;;;;;;;;;;;11.75;100.00;101734.06;5117260;27;19951;-79
2021/12/31 10:11:05;;;;;;;;;;;;;;;11.73;100.00;101745.38;5115692;27;19916;-76
2021/12/31 10:13:31;;;;;;;;;;;;;;;11.69;100.00;101765.47;5114769;28;19927;-79
2021/12/31 10:15:57;;;;;;;;;;;;;;;11.68;100.00;101768.91;5117196;27;19916;-78
2021/12/31 10:18:30;;;;;;;;;;;;;;;11.67;100.00;101772.41;5114797;27;19926;-79
2021/12/31 10:20:56;;;;;;;;;;;;;;;11.66;100.00;101765.31;5118084;27;19920;-79
2021/12/31 10:23:22;;;;;;;;;;;;;;;11.69;100.00;101747.00;5118220;27;19927;-79
2021/12/31 10:25:48;;;;;;;;;;;;;;;11.71;100.00;101742.66;5134310;27;20634;-79
2021/12/31 10:28:15;;;;;;;;;;;;;;;11.73;100.00;101733.13;5116257;27;20540;-78
2021/12/31 10:30:42;;;;;;;;;;;;;;;11.75;100.00;101712.97;5133550;27;19934;-79
2021/12/31 10:33:07;;;;;;;;;;;;;;;11.79;100.00;101696.44;5135464;27;20373;-79
2021/12/31 10:35:46;;;;;;;;;;;;;;;11.81;100.00;101660.47;5130799;27;19920;-78
2021/12/31 10:38:13;;;;;;;;;;;;;;;11.81;100.00;101628.81;5115426;28;19919;-79
2021/12/31 10:40:40;;;;;;;;;;;;;;;11.90;100.00;101636.22;5114306;28;19926;-79
2021/12/31 10:43:25;;;;;;;;;;;;;;;11.99;100.00;101648.94;5113883;28;19923;-79
2021/12/31 10:46:09;;;;;;;;;;;;;;;12.13;100.00;101660.06;5115483;28;20384;-78
2021/12/31 10:48:38;;;;;;;;;;;;;;;12.35;100.00;101675.09;5112939;28;19920;-78
2021/12/31 10:51:04;;;;;;;;;;;;;;;12.30;100.00;101679.28;5116130;27;19947;-79
2021/12/31 10:53:34;;;;;;;;;;;;;;;12.27;100.00;101685.31;5117737;27;19920;-78
2021/12/31 10:56:09;;;;;;;;;;;;;;;12.24;100.00;101684.28;5117123;27;20464;-79
2021/12/31 10:58:37;;;;;;;;;;;;;;;12.17;100.00;101681.41;5117218;27;19940;-77
2021/12/31 11:01:10;;;;;;;;;;;;;;;12.12;100.00;101684.66;5151597;27;19923;-78
2021/12/31 11:03:36;;;;;;;;;;;;;;;12.11;100.00;101689.06;5117349;27;19956;-79
2021/12/31 11:06:02;;;;;;;;;;;;;;;12.23;100.00;101679.84;5113279;28;19935;-79
2021/12/31 11:08:31;;;;;;;;;;;;;;;12.25;100.00;101688.75;5112654;28;22105;-79
2021/12/31 11:10:57;;;;;;;;;;;;;;;12.22;100.00;101689.50;5112773;28;19924;-78
2021/12/31 11:13:26;;;;;;;;;;;;;;;12.19;100.00;101686.75;5113664;28;20347;-79
2021/12/31 11:15:52;;;;;;;;;;;;;;;12.16;100.00;101690.16;5112953;28;19946;-78
2021/12/31 11:18:25;;;;;;;;;;;;;;;12.12;100.00;101693.50;5112965;28;19920;-78
2021/12/31 11:20:57;;;;;;;;;;;;;;;12.05;100.00;101712.53;5113061;28;19969;-77
2021/12/31 11:23:26;;;;;;;;;;;;;;;11.99;100.00;101705.28;5113192;28;19920;-78
2021/12/31 11:25:53;;;;;;;;;;;;;;;11.95;100.00;101710.34;5093273;28;19920;-79
2021/12/31 11:28:25;;;;;;;;;;;;;;;11.97;100.00;101709.56;5092304;28;19920;-78
2021/12/31 11:30:51;;;;;;;;;;;;;;;11.96;100.00;101717.41;5091800;28;19927;-78
2021/12/31 11:33:18;;;;;;;;;;;;;;;12.01;100.00;101715.91;5090627;28;19920;-77
2021/12/31 11:36:02;;;;;;;;;;;;;;;12.03;100.00;101716.88;5092013;28;19916;-77
2021/12/31 11:38:29;;;;;;;;;;;;;;;12.02;100.00;101722.97;5092012;28;19923;-78
2021/12/31 11:41:02;;;;;;;;;;;;;;;12.07;100.00;101716.16;5101918;28;20014;-78
2021/12/31 11:43:28;;;;;;;;;;;;;;;12.05;100.00;101711.66;5113022;28;19969;-77
2021/12/31 11:46:12;;;;;;;;;;;;;;;12.07;100.00;101702.94;5095282;28;19930;-79
2021/12/31 11:48:48;;;;;;;;;;;;;;;12.17;100.00;101706.91;5112768;28;19990;-78
2021/12/31 11:51:24;;;;;;;;;;;;;;;12.22;100.00;101715.91;5113875;28;19955;-78
2021/12/31 11:53:55;;;;;;;;;;;;;;;12.36;100.00;101717.41;5112543;28;20654;-78
2021/12/31 11:56:33;;;;;;;;;;;;;;;12.63;100.00;101729.06;5112833;28;19973;-78
2021/12/31 11:59:20;;;;;;;;;;;;;;;12.73;100.00;101718.06;5113122;28;19924;-79
2021/12/31 12:01:51;;;;;;;;;;;;;;;12.90;100.00;101730.22;5112348;28;19923;-79
2021/12/31 12:04:33;;;;;;;;;;;;;;;12.82;100.00;101721.06;5117572;28;19984;-77
2021/12/31 12:06:58;;;;;;;;;;;;;;;12.60;100.00;101715.72;5116728;28;19999;-77
2021/12/31 12:09:44;;;;;;;;;;;;;;;12.51;100.00;101703.94;5116739;28;19926;-78
2021/12/31 12:12:15;;;;;;;;;;;;;;;12.31;100.00;101704.88;5112309;28;19919;-78
2021/12/31 12:14:41;;;;;;;;;;;;;;;12.21;100.00;101709.75;5116204;28;20368;-79
2021/12/31 12:17:07;;;;;;;;;;;;;;;12.11;100.00;101711.91;5116214;28;19920;-78
2021/12/31 12:19:51;;;;;;;;;;;;;;;12.08;100.00;101723.25;5117917;28;19919;-78
2021/12/31 12:22:25;;;;;;;;;;;;;;;12.11;100.00;101715.44;5116967;28;19919;-78
2021/12/31 12:24:51;;;;;;;;;;;;;;;12.23;100.00;101723.00;5118830;28;19920;-78
2021/12/31 12:27:17;;;;;;;;;;;;;;;12.39;100.00;101714.00;5116975;28;20249;-79
2021/12/31 12:29:42;;;;;;;;;;;;;;;12.56;100.00;101714.72;5115329;28;19920;-79
2021/12/31 12:32:08;;;;;;;;;;;;;;;12.62;100.00;101727.28;5115900;28;20347;-79
2021/12/31 12:34:34;;;;;;;;;;;;;;;12.61;100.00;101721.06;5115942;28;20492;-79